WMT5111 BKPR-EDDF
Flight info
| Callsign | WMT5111 |
|---|---|
| Flight time | 2h 3m |
| Altitude | 38000 |
| Route | KUKAD1A KUKAD DCT RETRA DCT GACMO DCT RADLY DCT SIMBA DCT AKINI T161 DEBHI SPESA5C |
| Aircraft | A20N/M-SDE2E3FGHIRWXY/LB1 |
Departure
| Time | 2026-04-15 13:14 |
|---|---|
| Airport | Priština Adem Jashari International Airport (BKPR) |
Arrival
| Time | 2026-04-15 15:17 |
|---|---|
| Airport | Frankfurt Main Airport (EDDF) |
| Time | Latitude | Longitude | Altitude | Speed | Heading |
|---|---|---|---|---|---|
| 2026-04-15 12:39 | 42.57472 | 21.03147 | 1791 ft | 0 kts | 265° |
| 2026-04-15 13:01 | 42.57472 | 21.03149 | 1791 ft | 1 kts | 265° |
| 2026-04-15 13:01 | 42.57473 | 21.03159 | 1791 ft | 1 kts | 273° |
| 2026-04-15 13:02 | 42.57472 | 21.03169 | 1793 ft | 1 kts | 282° |
| 2026-04-15 13:02 | 42.57470 | 21.03179 | 1794 ft | 1 kts | 290° |
| 2026-04-15 13:02 | 42.57469 | 21.03183 | 1791 ft | 0 kts | 292° |
| 2026-04-15 13:02 | 42.57468 | 21.03186 | 1791 ft | 1 kts | 293° |
| 2026-04-15 13:03 | 42.57465 | 21.03196 | 1789 ft | 1 kts | 293° |
| 2026-04-15 13:03 | 42.57463 | 21.03205 | 1790 ft | 1 kts | 293° |
| 2026-04-15 13:03 | 42.57460 | 21.03214 | 1790 ft | 1 kts | 294° |
| 2026-04-15 13:03 | 42.57456 | 21.03224 | 1789 ft | 1 kts | 318° |
| 2026-04-15 13:04 | 42.57450 | 21.03230 | 1789 ft | 1 kts | 353° |
| 2026-04-15 13:04 | 42.57444 | 21.03231 | 1790 ft | 0 kts | 353° |
| 2026-04-15 13:06 | 42.57452 | 21.03230 | 1789 ft | 2 kts | 353° |
| 2026-04-15 13:06 | 42.57476 | 21.03226 | 1789 ft | 5 kts | 353° |
| 2026-04-15 13:06 | 42.57516 | 21.03220 | 1791 ft | 7 kts | 353° |
| 2026-04-15 13:07 | 42.57571 | 21.03211 | 1791 ft | 9 kts | 353° |
| 2026-04-15 13:07 | 42.57642 | 21.03205 | 1791 ft | 11 kts | 0° |
| 2026-04-15 13:07 | 42.57697 | 21.03205 | 1791 ft | 12 kts | 2° |
| 2026-04-15 13:07 | 42.57758 | 21.03278 | 1791 ft | 12 kts | 34° |
| 2026-04-15 13:08 | 42.57846 | 21.03281 | 1790 ft | 14 kts | 354° |
| 2026-04-15 13:08 | 42.57945 | 21.03274 | 1792 ft | 15 kts | 359° |
| 2026-04-15 13:08 | 42.58044 | 21.03266 | 1794 ft | 14 kts | 355° |
| 2026-04-15 13:08 | 42.58140 | 21.03255 | 1796 ft | 14 kts | 355° |
| 2026-04-15 13:09 | 42.58242 | 21.03244 | 1797 ft | 15 kts | 355° |
| 2026-04-15 13:09 | 42.58344 | 21.03234 | 1799 ft | 15 kts | 0° |
| 2026-04-15 13:09 | 42.58420 | 21.03306 | 1803 ft | 13 kts | 56° |
| 2026-04-15 13:09 | 42.58461 | 21.03406 | 1805 ft | 12 kts | 75° |
| 2026-04-15 13:10 | 42.58414 | 21.03476 | 1803 ft | 10 kts | 172° |
| 2026-04-15 13:10 | 42.58405 | 21.03477 | 1802 ft | 3 kts | 174° |
| 2026-04-15 13:10 | 42.58377 | 21.03481 | 1803 ft | 0 kts | 174° |
| 2026-04-15 13:12 | 42.58374 | 21.03481 | 1803 ft | 0 kts | 174° |
| 2026-04-15 13:13 | 42.58116 | 21.03514 | 1795 ft | 71 kts | 175° |
| 2026-04-15 13:13 | 42.57437 | 21.03587 | 1792 ft | 124 kts | 176° |
| 2026-04-15 13:13 | 42.56425 | 21.03677 | 1824 ft | 162 kts | 175° |
| 2026-04-15 13:13 | 42.55322 | 21.03765 | 2383 ft | 155 kts | 175° |
| 2026-04-15 13:14 | 42.54211 | 21.03834 | 2826 ft | 168 kts | 172° |
| 2026-04-15 13:14 | 42.53033 | 21.03903 | 3343 ft | 170 kts | 171° |
| 2026-04-15 13:14 | 42.51839 | 21.03989 | 3796 ft | 177 kts | 172° |
| 2026-04-15 13:14 | 42.50556 | 21.04034 | 4147 ft | 193 kts | 181° |
| 2026-04-15 13:15 | 42.49189 | 21.03545 | 4544 ft | 217 kts | 201° |
| 2026-04-15 13:15 | 42.47928 | 21.02213 | 4894 ft | 243 kts | 227° |
| 2026-04-15 13:15 | 42.47028 | 21.00165 | 5376 ft | 266 kts | 247° |
| 2026-04-15 13:15 | 42.46617 | 20.97670 | 6097 ft | 274 kts | 263° |
| 2026-04-15 13:16 | 42.46484 | 20.95112 | 7032 ft | 273 kts | 266° |
| 2026-04-15 13:16 | 42.46411 | 20.92578 | 8046 ft | 266 kts | 266° |
| 2026-04-15 13:16 | 42.46277 | 20.90097 | 8975 ft | 264 kts | 263° |
| 2026-04-15 13:16 | 42.46042 | 20.87625 | 9675 ft | 270 kts | 261° |
| 2026-04-15 13:17 | 42.45724 | 20.85117 | 10431 ft | 273 kts | 258° |
| 2026-04-15 13:17 | 42.45360 | 20.82577 | 11151 ft | 274 kts | 258° |
| 2026-04-15 13:17 | 42.44972 | 20.80002 | 11665 ft | 288 kts | 257° |
| 2026-04-15 13:17 | 42.44540 | 20.77237 | 11871 ft | 311 kts | 257° |
| 2026-04-15 13:18 | 42.44073 | 20.74276 | 12116 ft | 332 kts | 257° |
| 2026-04-15 13:18 | 42.43580 | 20.71131 | 12409 ft | 348 kts | 257° |
| 2026-04-15 13:18 | 42.43073 | 20.67883 | 12842 ft | 355 kts | 257° |
| 2026-04-15 13:18 | 42.42563 | 20.64603 | 13206 ft | 357 kts | 257° |
| 2026-04-15 13:19 | 42.42048 | 20.61296 | 13617 ft | 362 kts | 257° |
| 2026-04-15 13:19 | 42.41528 | 20.57969 | 14376 ft | 361 kts | 257° |
| 2026-04-15 13:19 | 42.41006 | 20.54636 | 15071 ft | 362 kts | 257° |
| 2026-04-15 13:19 | 42.40481 | 20.51295 | 15729 ft | 364 kts | 257° |
| 2026-04-15 13:20 | 42.39952 | 20.47926 | 16385 ft | 366 kts | 257° |
| 2026-04-15 13:20 | 42.39418 | 20.44542 | 17001 ft | 370 kts | 257° |
| 2026-04-15 13:20 | 42.38878 | 20.41123 | 17612 ft | 372 kts | 257° |
| 2026-04-15 13:20 | 42.38334 | 20.37685 | 18246 ft | 375 kts | 257° |
| 2026-04-15 13:21 | 42.37793 | 20.34265 | 18825 ft | 376 kts | 257° |
| 2026-04-15 13:21 | 42.37242 | 20.30794 | 19382 ft | 378 kts | 257° |
| 2026-04-15 13:21 | 42.36688 | 20.27311 | 19912 ft | 381 kts | 257° |
| 2026-04-15 13:21 | 42.36126 | 20.23788 | 20401 ft | 385 kts | 257° |
| 2026-04-15 13:22 | 42.35557 | 20.20226 | 20897 ft | 388 kts | 257° |
| 2026-04-15 13:22 | 42.34989 | 20.16651 | 21435 ft | 390 kts | 257° |
| 2026-04-15 13:22 | 42.34460 | 20.13042 | 21960 ft | 393 kts | 258° |
| 2026-04-15 13:22 | 42.33948 | 20.09389 | 22453 ft | 396 kts | 258° |
| 2026-04-15 13:23 | 42.33434 | 20.05711 | 22927 ft | 399 kts | 258° |
| 2026-04-15 13:23 | 42.32909 | 20.02008 | 23420 ft | 402 kts | 257° |
| 2026-04-15 13:23 | 42.32378 | 19.98293 | 23892 ft | 404 kts | 257° |
| 2026-04-15 13:23 | 42.31841 | 19.94557 | 24335 ft | 405 kts | 257° |
| 2026-04-15 13:24 | 42.31306 | 19.90864 | 24779 ft | 407 kts | 257° |
| 2026-04-15 13:24 | 42.30761 | 19.87106 | 25187 ft | 409 kts | 257° |
| 2026-04-15 13:24 | 42.30210 | 19.83326 | 25607 ft | 410 kts | 257° |
| 2026-04-15 13:24 | 42.29658 | 19.79542 | 26018 ft | 412 kts | 257° |
| 2026-04-15 13:25 | 42.29099 | 19.75718 | 26290 ft | 416 kts | 257° |
| 2026-04-15 13:25 | 42.28538 | 19.71892 | 26813 ft | 414 kts | 257° |
| 2026-04-15 13:25 | 42.27977 | 19.68071 | 27183 ft | 416 kts | 256° |
| 2026-04-15 13:25 | 42.27411 | 19.64226 | 27528 ft | 418 kts | 256° |
| 2026-04-15 13:26 | 42.26841 | 19.60366 | 27893 ft | 419 kts | 256° |
| 2026-04-15 13:26 | 42.26268 | 19.56499 | 28260 ft | 421 kts | 256° |
| 2026-04-15 13:26 | 42.25691 | 19.52610 | 28588 ft | 423 kts | 256° |
| 2026-04-15 13:26 | 42.25112 | 19.48714 | 28926 ft | 424 kts | 256° |
| 2026-04-15 13:27 | 42.24569 | 19.44799 | 29231 ft | 427 kts | 261° |
| 2026-04-15 13:27 | 42.24504 | 19.40795 | 29325 ft | 438 kts | 273° |
| 2026-04-15 13:27 | 42.25127 | 19.36752 | 29594 ft | 444 kts | 286° |
| 2026-04-15 13:27 | 42.26414 | 19.32929 | 29879 ft | 451 kts | 298° |
| 2026-04-15 13:28 | 42.28307 | 19.29524 | 30134 ft | 458 kts | 311° |
| 2026-04-15 13:28 | 42.30726 | 19.26696 | 30366 ft | 464 kts | 323° |
| 2026-04-15 13:28 | 42.33469 | 19.24345 | 30615 ft | 467 kts | 326° |
| 2026-04-15 13:28 | 42.36270 | 19.22091 | 30866 ft | 469 kts | 326° |
| 2026-04-15 13:29 | 42.39075 | 19.19830 | 31121 ft | 470 kts | 326° |
| 2026-04-15 13:29 | 42.41870 | 19.17537 | 31513 ft | 468 kts | 326° |
| 2026-04-15 13:29 | 42.44638 | 19.15238 | 31871 ft | 466 kts | 325° |
| 2026-04-15 13:29 | 42.47394 | 19.12928 | 32184 ft | 465 kts | 325° |
| 2026-04-15 13:30 | 42.50145 | 19.10609 | 32434 ft | 466 kts | 325° |
| 2026-04-15 13:30 | 42.52901 | 19.08281 | 32699 ft | 466 kts | 325° |
| 2026-04-15 13:30 | 42.55650 | 19.05958 | 32977 ft | 466 kts | 324° |
| 2026-04-15 13:30 | 42.58407 | 19.03626 | 33178 ft | 467 kts | 324° |
| 2026-04-15 13:31 | 42.61158 | 19.01295 | 33498 ft | 465 kts | 324° |
| 2026-04-15 13:31 | 42.63897 | 18.98973 | 33846 ft | 462 kts | 325° |
| 2026-04-15 13:31 | 42.66582 | 18.96695 | 34216 ft | 459 kts | 325° |
| 2026-04-15 13:31 | 42.69290 | 18.94395 | 34450 ft | 458 kts | 325° |
| 2026-04-15 13:32 | 42.71992 | 18.92096 | 34654 ft | 458 kts | 325° |
| 2026-04-15 13:32 | 42.74693 | 18.89796 | 34849 ft | 457 kts | 325° |
| 2026-04-15 13:32 | 42.77388 | 18.87498 | 35014 ft | 457 kts | 325° |
| 2026-04-15 13:32 | 42.80084 | 18.85197 | 35203 ft | 457 kts | 325° |
| 2026-04-15 13:33 | 42.82781 | 18.82892 | 35402 ft | 457 kts | 325° |
| 2026-04-15 13:33 | 42.85473 | 18.80590 | 35592 ft | 456 kts | 326° |
| 2026-04-15 13:33 | 42.88151 | 18.78296 | 35854 ft | 454 kts | 326° |
| 2026-04-15 13:33 | 42.90825 | 18.76003 | 35962 ft | 454 kts | 326° |
| 2026-04-15 13:34 | 42.93505 | 18.73703 | 36079 ft | 455 kts | 326° |
| 2026-04-15 13:34 | 42.96192 | 18.71397 | 36163 ft | 457 kts | 326° |
| 2026-04-15 13:34 | 42.98844 | 18.69118 | 36360 ft | 455 kts | 326° |
| 2026-04-15 13:34 | 43.01557 | 18.66785 | 36528 ft | 454 kts | 326° |
| 2026-04-15 13:35 | 43.04201 | 18.64509 | 36650 ft | 454 kts | 326° |
| 2026-04-15 13:35 | 43.06870 | 18.62208 | 36850 ft | 453 kts | 326° |
| 2026-04-15 13:35 | 43.09536 | 18.59908 | 37031 ft | 452 kts | 326° |
| 2026-04-15 13:35 | 43.12196 | 18.57612 | 37068 ft | 451 kts | 326° |
| 2026-04-15 13:36 | 43.17481 | 18.53001 | 37079 ft | 450 kts | 325° |
| 2026-04-15 13:36 | 43.22735 | 18.48296 | 37078 ft | 450 kts | 325° |
| 2026-04-15 13:37 | 43.27981 | 18.43608 | 37082 ft | 449 kts | 326° |
| 2026-04-15 13:37 | 43.33242 | 18.38910 | 37086 ft | 452 kts | 326° |
| 2026-04-15 13:38 | 43.38493 | 18.34214 | 37090 ft | 454 kts | 326° |
| 2026-04-15 13:38 | 43.43787 | 18.29465 | 37089 ft | 453 kts | 326° |
| 2026-04-15 13:39 | 43.49059 | 18.24727 | 37091 ft | 453 kts | 326° |
| 2026-04-15 13:39 | 43.54314 | 18.19993 | 37093 ft | 450 kts | 326° |
| 2026-04-15 13:40 | 43.59566 | 18.15250 | 37107 ft | 451 kts | 326° |
| 2026-04-15 13:40 | 43.64830 | 18.10486 | 37111 ft | 452 kts | 326° |
| 2026-04-15 13:41 | 43.70048 | 18.05756 | 37112 ft | 451 kts | 326° |
| 2026-04-15 13:41 | 43.75288 | 18.00994 | 37113 ft | 451 kts | 326° |
| 2026-04-15 13:42 | 43.80518 | 17.96233 | 37115 ft | 449 kts | 326° |
| 2026-04-15 13:42 | 43.85741 | 17.91469 | 37113 ft | 451 kts | 325° |
| 2026-04-15 13:43 | 43.90986 | 17.86672 | 37113 ft | 451 kts | 325° |
| 2026-04-15 13:43 | 43.96221 | 17.81874 | 37114 ft | 449 kts | 326° |
| 2026-04-15 13:44 | 44.01451 | 17.77075 | 37123 ft | 452 kts | 325° |
| 2026-04-15 13:44 | 44.06658 | 17.72285 | 37119 ft | 452 kts | 325° |
| 2026-04-15 13:45 | 44.11907 | 17.67443 | 37125 ft | 451 kts | 325° |
| 2026-04-15 13:47 | 44.32758 | 17.48109 | 37142 ft | 449 kts | 324° |
| 2026-04-15 13:47 | 44.37952 | 17.43265 | 37151 ft | 449 kts | 325° |
| 2026-04-15 13:48 | 44.43108 | 17.38447 | 37152 ft | 449 kts | 325° |
| 2026-04-15 13:48 | 44.48295 | 17.33592 | 37410 ft | 447 kts | 324° |
| 2026-04-15 13:49 | 44.50880 | 17.31167 | 37528 ft | 447 kts | 324° |
| 2026-04-15 13:49 | 44.53463 | 17.28741 | 37641 ft | 447 kts | 324° |
| 2026-04-15 13:49 | 44.56049 | 17.26311 | 37751 ft | 447 kts | 324° |
| 2026-04-15 13:49 | 44.58633 | 17.23878 | 37863 ft | 447 kts | 324° |
| 2026-04-15 13:50 | 44.61212 | 17.21449 | 37976 ft | 447 kts | 324° |
| 2026-04-15 13:50 | 44.63800 | 17.19007 | 38087 ft | 447 kts | 325° |
| 2026-04-15 13:50 | 44.68952 | 17.14142 | 38181 ft | 444 kts | 324° |
| 2026-04-15 13:51 | 44.74052 | 17.09316 | 38182 ft | 442 kts | 324° |
| 2026-04-15 13:51 | 44.79160 | 17.04470 | 38184 ft | 443 kts | 324° |
| 2026-04-15 13:52 | 44.84234 | 16.99646 | 38182 ft | 443 kts | 324° |
| 2026-04-15 13:52 | 44.89332 | 16.94789 | 38184 ft | 440 kts | 324° |
| 2026-04-15 13:53 | 44.94400 | 16.89950 | 38183 ft | 441 kts | 324° |
| 2026-04-15 13:53 | 44.99484 | 16.85084 | 38181 ft | 441 kts | 324° |
| 2026-04-15 13:54 | 45.04556 | 16.80220 | 38181 ft | 440 kts | 324° |
| 2026-04-15 13:54 | 45.09628 | 16.75345 | 38179 ft | 441 kts | 324° |
| 2026-04-15 13:55 | 45.14671 | 16.70487 | 38169 ft | 441 kts | 324° |
| 2026-04-15 13:55 | 45.19744 | 16.65590 | 38168 ft | 441 kts | 324° |
| 2026-04-15 13:56 | 45.24816 | 16.60683 | 38167 ft | 441 kts | 324° |
| 2026-04-15 13:56 | 45.29895 | 16.55759 | 38169 ft | 442 kts | 324° |
| 2026-04-15 13:57 | 45.34974 | 16.50823 | 38173 ft | 442 kts | 324° |
| 2026-04-15 13:57 | 45.39192 | 16.46715 | 38187 ft | 442 kts | 324° |
| 2026-04-15 13:58 | 45.44267 | 16.41762 | 38186 ft | 442 kts | 324° |
| 2026-04-15 13:58 | 45.49335 | 16.36805 | 38185 ft | 442 kts | 324° |
| 2026-04-15 13:59 | 45.54404 | 16.31839 | 38184 ft | 442 kts | 324° |
| 2026-04-15 13:59 | 45.59477 | 16.26856 | 38183 ft | 442 kts | 324° |
| 2026-04-15 14:00 | 45.64531 | 16.21880 | 38180 ft | 440 kts | 324° |
| 2026-04-15 14:00 | 45.69523 | 16.16953 | 38179 ft | 438 kts | 324° |
| 2026-04-15 14:01 | 45.77054 | 16.09503 | 38184 ft | 439 kts | 324° |
| 2026-04-15 14:02 | 45.82077 | 16.04520 | 38184 ft | 439 kts | 324° |
| 2026-04-15 14:02 | 45.87085 | 15.99541 | 38182 ft | 437 kts | 324° |
| 2026-04-15 14:03 | 45.92068 | 15.94575 | 38165 ft | 435 kts | 324° |
| 2026-04-15 14:03 | 45.97033 | 15.89616 | 38156 ft | 434 kts | 324° |
| 2026-04-15 14:04 | 46.01993 | 15.84651 | 38185 ft | 437 kts | 324° |
| 2026-04-15 14:04 | 46.06996 | 15.79633 | 38180 ft | 438 kts | 324° |
| 2026-04-15 14:05 | 46.11998 | 15.74603 | 38181 ft | 438 kts | 324° |
| 2026-04-15 14:05 | 46.16969 | 15.69594 | 38181 ft | 438 kts | 324° |
| 2026-04-15 14:06 | 46.21971 | 15.64541 | 38191 ft | 438 kts | 324° |
| 2026-04-15 14:06 | 46.26966 | 15.59485 | 38186 ft | 438 kts | 324° |
| 2026-04-15 14:07 | 46.31955 | 15.54423 | 38194 ft | 438 kts | 324° |
| 2026-04-15 14:07 | 46.36946 | 15.49347 | 38192 ft | 438 kts | 324° |
| 2026-04-15 14:08 | 46.41929 | 15.44269 | 38185 ft | 438 kts | 324° |
| 2026-04-15 14:08 | 46.46906 | 15.39182 | 38190 ft | 437 kts | 324° |
| 2026-04-15 14:09 | 46.51880 | 15.34091 | 38191 ft | 437 kts | 324° |
| 2026-04-15 14:09 | 46.56851 | 15.28996 | 38201 ft | 437 kts | 324° |
| 2026-04-15 14:10 | 46.61823 | 15.23889 | 38195 ft | 437 kts | 324° |
| 2026-04-15 14:10 | 46.66552 | 15.18442 | 38197 ft | 437 kts | 317° |
| 2026-04-15 14:11 | 46.71019 | 15.12444 | 38200 ft | 436 kts | 318° |
| 2026-04-15 14:11 | 46.75510 | 15.06499 | 38199 ft | 436 kts | 318° |
| 2026-04-15 14:12 | 46.79994 | 15.00526 | 38196 ft | 436 kts | 318° |
| 2026-04-15 14:12 | 46.84465 | 14.94539 | 38211 ft | 436 kts | 318° |
| 2026-04-15 14:13 | 46.88930 | 14.88544 | 38211 ft | 436 kts | 318° |
| 2026-04-15 14:13 | 46.93387 | 14.82543 | 38205 ft | 433 kts | 318° |
| 2026-04-15 14:14 | 46.97790 | 14.76607 | 38204 ft | 433 kts | 318° |
| 2026-04-15 14:14 | 47.02219 | 14.70619 | 38203 ft | 433 kts | 318° |
| 2026-04-15 14:15 | 47.06640 | 14.64627 | 38202 ft | 433 kts | 318° |
| 2026-04-15 14:15 | 47.11060 | 14.58623 | 38206 ft | 432 kts | 318° |
| 2026-04-15 14:16 | 47.15468 | 14.52619 | 38208 ft | 432 kts | 319° |
| 2026-04-15 14:16 | 47.19876 | 14.46603 | 38203 ft | 432 kts | 319° |
| 2026-04-15 14:17 | 47.24272 | 14.40590 | 38191 ft | 431 kts | 319° |
| 2026-04-15 14:17 | 47.28660 | 14.34572 | 38188 ft | 431 kts | 318° |
| 2026-04-15 14:18 | 47.33047 | 14.28542 | 38176 ft | 431 kts | 318° |
| 2026-04-15 14:18 | 47.37424 | 14.22508 | 38183 ft | 430 kts | 319° |
| 2026-04-15 14:19 | 47.41792 | 14.16475 | 38188 ft | 430 kts | 319° |
| 2026-04-15 14:19 | 47.46164 | 14.10423 | 38182 ft | 430 kts | 319° |
| 2026-04-15 14:20 | 47.50532 | 14.04363 | 38182 ft | 430 kts | 319° |
| 2026-04-15 14:20 | 47.54864 | 13.98335 | 38178 ft | 430 kts | 319° |
| 2026-04-15 14:21 | 47.59215 | 13.92267 | 38160 ft | 429 kts | 319° |
| 2026-04-15 14:21 | 47.63521 | 13.86245 | 38173 ft | 424 kts | 319° |
| 2026-04-15 14:22 | 47.67820 | 13.80223 | 38175 ft | 426 kts | 319° |
| 2026-04-15 14:22 | 47.72122 | 13.74182 | 38179 ft | 425 kts | 319° |
| 2026-04-15 14:23 | 47.76415 | 13.68138 | 38177 ft | 425 kts | 319° |
| 2026-04-15 14:23 | 47.80706 | 13.62083 | 38180 ft | 425 kts | 319° |
| 2026-04-15 14:24 | 47.84995 | 13.56014 | 38187 ft | 424 kts | 319° |
| 2026-04-15 14:24 | 47.89267 | 13.49958 | 38182 ft | 424 kts | 319° |
| 2026-04-15 14:25 | 47.93538 | 13.43888 | 38188 ft | 424 kts | 319° |
| 2026-04-15 14:25 | 47.97809 | 13.37802 | 38189 ft | 424 kts | 319° |
| 2026-04-15 14:26 | 48.02045 | 13.31753 | 38190 ft | 424 kts | 319° |
| 2026-04-15 14:26 | 48.06303 | 13.25658 | 38184 ft | 424 kts | 319° |
| 2026-04-15 14:27 | 48.10567 | 13.19539 | 38187 ft | 424 kts | 319° |
| 2026-04-15 14:27 | 48.14825 | 13.13415 | 38193 ft | 424 kts | 319° |
| 2026-04-15 14:28 | 48.19078 | 13.07282 | 38201 ft | 425 kts | 319° |
| 2026-04-15 14:28 | 48.23300 | 13.01073 | 38206 ft | 426 kts | 316° |
| 2026-04-15 14:29 | 48.27229 | 12.94408 | 38193 ft | 426 kts | 315° |
| 2026-04-15 14:29 | 48.31145 | 12.87814 | 38204 ft | 426 kts | 315° |
| 2026-04-15 14:30 | 48.35078 | 12.81156 | 38202 ft | 426 kts | 315° |
| 2026-04-15 14:30 | 48.39001 | 12.74480 | 38197 ft | 425 kts | 315° |
| 2026-04-15 14:31 | 48.42902 | 12.67819 | 38202 ft | 424 kts | 315° |
| 2026-04-15 14:31 | 48.46802 | 12.61145 | 38202 ft | 424 kts | 315° |
| 2026-04-15 14:32 | 48.50698 | 12.54461 | 38201 ft | 424 kts | 315° |
| 2026-04-15 14:32 | 48.54592 | 12.47764 | 38196 ft | 424 kts | 315° |
| 2026-04-15 14:33 | 48.58480 | 12.41060 | 38197 ft | 424 kts | 315° |
| 2026-04-15 14:33 | 48.62362 | 12.34348 | 38199 ft | 424 kts | 314° |
| 2026-04-15 14:34 | 48.66216 | 12.27669 | 38203 ft | 424 kts | 314° |
| 2026-04-15 14:34 | 48.70074 | 12.20960 | 38196 ft | 419 kts | 315° |
| 2026-04-15 14:35 | 48.73513 | 12.13778 | 38196 ft | 426 kts | 302° |
| 2026-04-15 14:35 | 48.75673 | 12.05327 | 38199 ft | 436 kts | 288° |
| 2026-04-15 14:36 | 48.76711 | 11.96216 | 38203 ft | 439 kts | 284° |
| 2026-04-15 14:36 | 48.77704 | 11.87100 | 38204 ft | 439 kts | 284° |
| 2026-04-15 14:37 | 48.78674 | 11.78058 | 38207 ft | 436 kts | 284° |
| 2026-04-15 14:37 | 48.79635 | 11.68980 | 38208 ft | 436 kts | 284° |
| 2026-04-15 14:38 | 48.80590 | 11.59879 | 38209 ft | 436 kts | 284° |
| 2026-04-15 14:38 | 48.81532 | 11.50781 | 38215 ft | 436 kts | 284° |
| 2026-04-15 14:39 | 48.82467 | 11.41676 | 38196 ft | 436 kts | 284° |
| 2026-04-15 14:39 | 48.83394 | 11.32580 | 38210 ft | 436 kts | 284° |
| 2026-04-15 14:40 | 48.85068 | 11.23871 | 38209 ft | 425 kts | 301° |
| 2026-04-15 14:40 | 48.88366 | 11.16595 | 38205 ft | 415 kts | 318° |
| 2026-04-15 14:41 | 48.92563 | 11.10694 | 38210 ft | 414 kts | 321° |
| 2026-04-15 14:41 | 48.96810 | 11.04766 | 38215 ft | 414 kts | 321° |
| 2026-04-15 14:42 | 49.01051 | 10.98819 | 38227 ft | 414 kts | 320° |
| 2026-04-15 14:42 | 49.05271 | 10.92886 | 37958 ft | 409 kts | 320° |
| 2026-04-15 14:42 | 49.07357 | 10.89948 | 37389 ft | 408 kts | 320° |
| 2026-04-15 14:43 | 49.09440 | 10.87012 | 36723 ft | 408 kts | 320° |
| 2026-04-15 14:43 | 49.11527 | 10.84065 | 36012 ft | 409 kts | 320° |
| 2026-04-15 14:43 | 49.13615 | 10.81111 | 35332 ft | 410 kts | 320° |
| 2026-04-15 14:43 | 49.15713 | 10.78140 | 34574 ft | 413 kts | 320° |
| 2026-04-15 14:44 | 49.17803 | 10.75177 | 33769 ft | 415 kts | 320° |
| 2026-04-15 14:44 | 49.19928 | 10.72162 | 32922 ft | 418 kts | 319° |
| 2026-04-15 14:44 | 49.22013 | 10.69038 | 32095 ft | 421 kts | 317° |
| 2026-04-15 14:44 | 49.24049 | 10.65805 | 31284 ft | 424 kts | 315° |
| 2026-04-15 14:45 | 49.26093 | 10.62522 | 30518 ft | 428 kts | 315° |
| 2026-04-15 14:45 | 49.28152 | 10.59229 | 29649 ft | 429 kts | 315° |
| 2026-04-15 14:45 | 49.30228 | 10.55928 | 28767 ft | 430 kts | 315° |
| 2026-04-15 14:45 | 49.31634 | 10.53697 | 28178 ft | 430 kts | 315° |
| 2026-04-15 14:46 | 49.33716 | 10.50398 | 27348 ft | 431 kts | 315° |
| 2026-04-15 14:46 | 49.35762 | 10.47049 | 26534 ft | 431 kts | 311° |
| 2026-04-15 14:46 | 49.37581 | 10.43390 | 25752 ft | 431 kts | 305° |
| 2026-04-15 14:46 | 49.39270 | 10.39660 | 24996 ft | 431 kts | 305° |
| 2026-04-15 14:47 | 49.40983 | 10.35912 | 24473 ft | 425 kts | 305° |
| 2026-04-15 14:47 | 49.42658 | 10.32250 | 24276 ft | 411 kts | 305° |
| 2026-04-15 14:47 | 49.44265 | 10.28731 | 24215 ft | 394 kts | 305° |
| 2026-04-15 14:47 | 49.45840 | 10.25272 | 24214 ft | 398 kts | 305° |
| 2026-04-15 14:48 | 49.47437 | 10.21757 | 24208 ft | 401 kts | 305° |
| 2026-04-15 14:48 | 49.49030 | 10.18243 | 24208 ft | 400 kts | 305° |
| 2026-04-15 14:48 | 49.50622 | 10.14729 | 24209 ft | 400 kts | 305° |
| 2026-04-15 14:48 | 49.52211 | 10.11215 | 24209 ft | 400 kts | 305° |
| 2026-04-15 14:49 | 49.53803 | 10.07693 | 24211 ft | 400 kts | 304° |
| 2026-04-15 14:49 | 49.55389 | 10.04180 | 24203 ft | 399 kts | 304° |
| 2026-04-15 14:49 | 49.56964 | 10.00684 | 24008 ft | 396 kts | 304° |
| 2026-04-15 14:49 | 49.58532 | 9.97200 | 23547 ft | 395 kts | 304° |
| 2026-04-15 14:50 | 49.60093 | 9.93728 | 22973 ft | 393 kts | 304° |
| 2026-04-15 14:50 | 49.61641 | 9.90279 | 22374 ft | 390 kts | 304° |
| 2026-04-15 14:50 | 49.63176 | 9.86853 | 21798 ft | 387 kts | 304° |
| 2026-04-15 14:50 | 49.64682 | 9.83489 | 21230 ft | 384 kts | 303° |
| 2026-04-15 14:51 | 49.66195 | 9.80103 | 20665 ft | 382 kts | 303° |
| 2026-04-15 14:51 | 49.67699 | 9.76734 | 20107 ft | 379 kts | 303° |
| 2026-04-15 14:51 | 49.69192 | 9.73388 | 19571 ft | 377 kts | 303° |
| 2026-04-15 14:51 | 49.70674 | 9.70060 | 19049 ft | 375 kts | 303° |
| 2026-04-15 14:52 | 49.72146 | 9.66751 | 18533 ft | 373 kts | 303° |
| 2026-04-15 14:52 | 49.73607 | 9.63460 | 17974 ft | 370 kts | 303° |
| 2026-04-15 14:52 | 49.75056 | 9.60192 | 17428 ft | 367 kts | 303° |
| 2026-04-15 14:52 | 49.76491 | 9.56948 | 16894 ft | 364 kts | 303° |
| 2026-04-15 14:53 | 49.77915 | 9.53727 | 16359 ft | 361 kts | 303° |
| 2026-04-15 14:53 | 49.79327 | 9.50530 | 15866 ft | 358 kts | 303° |
| 2026-04-15 14:53 | 49.80726 | 9.47359 | 15369 ft | 356 kts | 303° |
| 2026-04-15 14:53 | 49.82113 | 9.44213 | 14904 ft | 352 kts | 303° |
| 2026-04-15 14:54 | 49.83490 | 9.41084 | 14433 ft | 350 kts | 303° |
| 2026-04-15 14:54 | 49.84858 | 9.37971 | 13934 ft | 348 kts | 302° |
| 2026-04-15 14:54 | 49.86050 | 9.34731 | 13398 ft | 345 kts | 294° |
| 2026-04-15 14:54 | 49.86920 | 9.31293 | 12878 ft | 341 kts | 286° |
| 2026-04-15 14:55 | 49.87580 | 9.27770 | 12362 ft | 339 kts | 285° |
| 2026-04-15 14:55 | 49.88244 | 9.24279 | 11881 ft | 337 kts | 285° |
| 2026-04-15 14:55 | 49.88909 | 9.20813 | 11386 ft | 335 kts | 285° |
| 2026-04-15 14:55 | 49.89567 | 9.17380 | 11068 ft | 329 kts | 285° |
| 2026-04-15 14:56 | 49.90200 | 9.14067 | 10975 ft | 320 kts | 285° |
| 2026-04-15 14:56 | 49.90819 | 9.10823 | 10869 ft | 308 kts | 285° |
| 2026-04-15 14:56 | 49.91411 | 9.07707 | 10761 ft | 295 kts | 285° |
| 2026-04-15 14:56 | 49.91980 | 9.04709 | 10581 ft | 285 kts | 285° |
| 2026-04-15 14:57 | 49.92538 | 9.01762 | 10224 ft | 283 kts | 285° |
| 2026-04-15 14:57 | 49.93096 | 8.98835 | 9816 ft | 282 kts | 285° |
| 2026-04-15 14:57 | 49.93653 | 8.95920 | 9402 ft | 281 kts | 285° |
| 2026-04-15 14:57 | 49.94205 | 8.93023 | 8998 ft | 280 kts | 285° |
| 2026-04-15 14:58 | 49.94756 | 8.90132 | 8607 ft | 278 kts | 285° |
| 2026-04-15 14:58 | 49.95304 | 8.87254 | 8216 ft | 277 kts | 285° |
| 2026-04-15 14:58 | 49.95843 | 8.84418 | 8025 ft | 268 kts | 285° |
| 2026-04-15 14:58 | 49.96359 | 8.81700 | 7920 ft | 256 kts | 285° |
| 2026-04-15 14:59 | 49.96851 | 8.79102 | 7810 ft | 245 kts | 285° |
| 2026-04-15 14:59 | 49.97327 | 8.76585 | 7545 ft | 242 kts | 284° |
| 2026-04-15 14:59 | 49.97799 | 8.74076 | 7228 ft | 241 kts | 284° |
| 2026-04-15 14:59 | 49.98016 | 8.71520 | 6893 ft | 239 kts | 264° |
| 2026-04-15 15:00 | 49.97626 | 8.69051 | 6629 ft | 233 kts | 247° |
| 2026-04-15 15:00 | 49.97033 | 8.66684 | 6628 ft | 237 kts | 248° |
| 2026-04-15 15:00 | 49.96458 | 8.64313 | 6723 ft | 240 kts | 248° |
| 2026-04-15 15:00 | 49.95875 | 8.61874 | 6947 ft | 240 kts | 249° |
| 2026-04-15 15:01 | 49.95290 | 8.59430 | 6997 ft | 237 kts | 249° |
| 2026-04-15 15:01 | 49.94681 | 8.57087 | 6995 ft | 237 kts | 238° |
| 2026-04-15 15:01 | 49.93526 | 8.55310 | 7000 ft | 237 kts | 207° |
| 2026-04-15 15:01 | 49.91939 | 8.54728 | 6988 ft | 238 kts | 176° |
| 2026-04-15 15:02 | 49.90376 | 8.55524 | 6987 ft | 241 kts | 146° |
| 2026-04-15 15:02 | 49.89289 | 8.57488 | 6987 ft | 245 kts | 115° |
| 2026-04-15 15:02 | 49.88951 | 8.60070 | 6989 ft | 248 kts | 94° |
| 2026-04-15 15:02 | 49.88876 | 8.62738 | 6983 ft | 247 kts | 92° |
| 2026-04-15 15:03 | 49.89132 | 8.65364 | 6988 ft | 249 kts | 74° |
| 2026-04-15 15:03 | 49.89639 | 8.67932 | 6984 ft | 249 kts | 73° |
| 2026-04-15 15:03 | 49.90153 | 8.70493 | 6984 ft | 249 kts | 73° |
| 2026-04-15 15:03 | 49.90667 | 8.73054 | 6984 ft | 249 kts | 73° |
| 2026-04-15 15:04 | 49.91181 | 8.75615 | 6990 ft | 249 kts | 73° |
| 2026-04-15 15:04 | 49.91697 | 8.78181 | 6990 ft | 249 kts | 73° |
| 2026-04-15 15:04 | 49.92215 | 8.80747 | 6983 ft | 248 kts | 73° |
| 2026-04-15 15:04 | 49.92727 | 8.83291 | 6806 ft | 246 kts | 73° |
| 2026-04-15 15:05 | 49.93237 | 8.85821 | 6521 ft | 246 kts | 73° |
| 2026-04-15 15:05 | 49.93748 | 8.88346 | 6210 ft | 244 kts | 73° |
| 2026-04-15 15:05 | 49.94257 | 8.90852 | 5909 ft | 243 kts | 73° |
| 2026-04-15 15:05 | 49.94760 | 8.93338 | 5629 ft | 240 kts | 73° |
| 2026-04-15 15:06 | 49.95763 | 8.98244 | 5071 ft | 236 kts | 73° |
| 2026-04-15 15:06 | 49.96257 | 9.00665 | 4784 ft | 234 kts | 73° |
| 2026-04-15 15:06 | 49.96747 | 9.03078 | 4459 ft | 234 kts | 73° |
| 2026-04-15 15:07 | 49.97239 | 9.05485 | 4149 ft | 233 kts | 73° |
| 2026-04-15 15:07 | 49.97721 | 9.07835 | 4004 ft | 231 kts | 73° |
| 2026-04-15 15:07 | 49.98209 | 9.10243 | 3984 ft | 234 kts | 73° |
| 2026-04-15 15:07 | 49.98698 | 9.12639 | 3988 ft | 232 kts | 73° |
| 2026-04-15 15:08 | 49.99387 | 9.14905 | 3985 ft | 233 kts | 50° |
| 2026-04-15 15:08 | 50.00709 | 9.16339 | 3990 ft | 236 kts | 18° |
| 2026-04-15 15:08 | 50.02335 | 9.16489 | 3989 ft | 238 kts | 347° |
| 2026-04-15 15:08 | 50.03931 | 9.15818 | 3989 ft | 238 kts | 343° |
| 2026-04-15 15:09 | 50.05523 | 9.15098 | 3987 ft | 238 kts | 343° |
| 2026-04-15 15:09 | 50.07114 | 9.14385 | 3985 ft | 238 kts | 343° |
| 2026-04-15 15:09 | 50.08704 | 9.13677 | 3981 ft | 237 kts | 343° |
| 2026-04-15 15:09 | 50.10268 | 9.12877 | 3978 ft | 236 kts | 330° |
| 2026-04-15 15:10 | 50.11462 | 9.11150 | 3987 ft | 238 kts | 298° |
| 2026-04-15 15:10 | 50.12023 | 9.08760 | 3985 ft | 235 kts | 284° |
| 2026-04-15 15:10 | 50.12453 | 9.06307 | 3985 ft | 234 kts | 283° |
| 2026-04-15 15:10 | 50.12870 | 9.03865 | 3986 ft | 233 kts | 281° |
| 2026-04-15 15:11 | 50.12934 | 9.01355 | 3989 ft | 233 kts | 264° |
| 2026-04-15 15:11 | 50.12793 | 8.98840 | 3985 ft | 233 kts | 263° |
| 2026-04-15 15:11 | 50.12569 | 8.96350 | 3991 ft | 233 kts | 259° |
| 2026-04-15 15:11 | 50.12263 | 8.93876 | 3989 ft | 232 kts | 254° |
| 2026-04-15 15:12 | 50.11810 | 8.91467 | 3990 ft | 232 kts | 250° |
| 2026-04-15 15:12 | 50.11274 | 8.89102 | 3994 ft | 231 kts | 248° |
| 2026-04-15 15:12 | 50.10730 | 8.86807 | 3987 ft | 217 kts | 248° |
| 2026-04-15 15:12 | 50.10220 | 8.84668 | 3995 ft | 210 kts | 248° |
| 2026-04-15 15:13 | 50.09708 | 8.82519 | 3993 ft | 211 kts | 248° |
| 2026-04-15 15:13 | 50.09205 | 8.80412 | 4023 ft | 209 kts | 248° |
| 2026-04-15 15:13 | 50.08699 | 8.78293 | 3996 ft | 207 kts | 248° |
| 2026-04-15 15:13 | 50.08221 | 8.76285 | 3986 ft | 188 kts | 248° |
| 2026-04-15 15:14 | 50.07789 | 8.74475 | 3987 ft | 168 kts | 248° |
| 2026-04-15 15:14 | 50.07381 | 8.72771 | 4002 ft | 171 kts | 247° |
| 2026-04-15 15:14 | 50.06972 | 8.71055 | 3999 ft | 168 kts | 248° |
| 2026-04-15 15:14 | 50.06557 | 8.69334 | 3844 ft | 171 kts | 248° |
| 2026-04-15 15:15 | 50.06136 | 8.67578 | 3294 ft | 178 kts | 248° |
| 2026-04-15 15:15 | 50.05715 | 8.65721 | 2664 ft | 184 kts | 249° |
| 2026-04-15 15:15 | 50.05266 | 8.63843 | 2036 ft | 186 kts | 248° |
| 2026-04-15 15:15 | 50.04790 | 8.61941 | 1368 ft | 189 kts | 246° |
| 2026-04-15 15:16 | 50.04329 | 8.60028 | 744 ft | 189 kts | 249° |
| 2026-04-15 15:16 | 50.03886 | 8.58163 | 378 ft | 177 kts | 247° |
| 2026-04-15 15:16 | 50.03510 | 8.56602 | 363 ft | 126 kts | 251° |
| 2026-04-15 15:16 | 50.03277 | 8.55652 | 354 ft | 51 kts | 233° |
| 2026-04-15 15:17 | 50.03118 | 8.55432 | 351 ft | 10 kts | 222° |
| 2026-04-15 15:17 | 50.03059 | 8.55351 | 350 ft | 12 kts | 215° |
| 2026-04-15 15:17 | 50.03035 | 8.55362 | 353 ft | 1 kts | 98° |
| 2026-04-15 15:17 | 50.03039 | 8.55393 | 353 ft | 6 kts | 80° |
| 2026-04-15 15:18 | 50.03062 | 8.55502 | 354 ft | 16 kts | 70° |
| 2026-04-15 15:18 | 50.03110 | 8.55707 | 354 ft | 21 kts | 63° |
| 2026-04-15 15:18 | 50.03153 | 8.55874 | 351 ft | 21 kts | 68° |
| 2026-04-15 15:18 | 50.03212 | 8.56110 | 355 ft | 25 kts | 69° |
| 2026-04-15 15:19 | 50.03275 | 8.56390 | 354 ft | 29 kts | 71° |
| 2026-04-15 15:19 | 50.03308 | 8.56525 | 360 ft | 12 kts | 69° |
| 2026-04-15 15:19 | 50.03346 | 8.56676 | 355 ft | 17 kts | 69° |
| 2026-04-15 15:19 | 50.03384 | 8.56846 | 361 ft | 17 kts | 70° |
| 2026-04-15 15:20 | 50.03427 | 8.57032 | 361 ft | 19 kts | 67° |
| 2026-04-15 15:20 | 50.03475 | 8.57225 | 360 ft | 19 kts | 69° |
| 2026-04-15 15:20 | 50.03523 | 8.57429 | 364 ft | 20 kts | 70° |
| 2026-04-15 15:20 | 50.03568 | 8.57621 | 369 ft | 18 kts | 70° |
| 2026-04-15 15:21 | 50.03611 | 8.57803 | 374 ft | 17 kts | 69° |
| 2026-04-15 15:21 | 50.03652 | 8.57978 | 373 ft | 18 kts | 69° |
| 2026-04-15 15:21 | 50.03700 | 8.58174 | 371 ft | 20 kts | 69° |
| 2026-04-15 15:21 | 50.03751 | 8.58388 | 371 ft | 22 kts | 70° |
| 2026-04-15 15:22 | 50.03806 | 8.58617 | 373 ft | 22 kts | 69° |
| 2026-04-15 15:22 | 50.03853 | 8.58816 | 373 ft | 12 kts | 70° |
| 2026-04-15 15:22 | 50.03862 | 8.58853 | 374 ft | 0 kts | 70° |
| 2026-04-15 15:22 | 50.03864 | 8.58863 | 374 ft | 2 kts | 70° |
| 2026-04-15 15:23 | 50.03871 | 8.58891 | 374 ft | 4 kts | 70° |
| 2026-04-15 15:23 | 50.03882 | 8.58937 | 375 ft | 5 kts | 70° |
| 2026-04-15 15:23 | 50.03896 | 8.59001 | 375 ft | 7 kts | 70° |
| 2026-04-15 15:23 | 50.03919 | 8.59096 | 374 ft | 12 kts | 70° |
| 2026-04-15 15:24 | 50.03950 | 8.59234 | 373 ft | 15 kts | 70° |
| 2026-04-15 15:24 | 50.04020 | 8.59361 | 370 ft | 18 kts | 36° |
| 2026-04-15 15:24 | 50.04145 | 8.59458 | 367 ft | 22 kts | 19° |
| 2026-04-15 15:24 | 50.04298 | 8.59478 | 365 ft | 24 kts | 358° |
| 2026-04-15 15:25 | 50.04478 | 8.59478 | 361 ft | 28 kts | 359° |
| 2026-04-15 15:25 | 50.04679 | 8.59458 | 358 ft | 30 kts | 352° |
| 2026-04-15 15:25 | 50.04800 | 8.59390 | 357 ft | 15 kts | 336° |
| 2026-04-15 15:25 | 50.04841 | 8.59237 | 348 ft | 10 kts | 291° |
| 2026-04-15 15:26 | 50.04862 | 8.59222 | 354 ft | 3 kts | 335° |
| 2026-04-15 15:26 | 50.04891 | 8.59204 | 356 ft | 5 kts | 340° |
| 2026-04-15 15:26 | 50.04918 | 8.59188 | 357 ft | 0 kts | 340° |